Главная страница
METAR-TAF:

METAR-TAF

Аэропорты :

Йёнчёпинг, Швеция

широта: 57-46N, долгота: 014-05E, высота над уровнем моря: 226 м

Текущие метеонаблюдения

Эта сводка был подготовлена 25 минут назад, в 22:50 UTC
Ветер 12 Узел от западный
Температура 1°C
Влажность 100%
Давление 992 hPa
Видимость 10 км и более

METAR: ESGJ 152250Z AUTO 28012KT 9999 BKN007/// OVC011/// 01/01 Q0992

Время: 00:15 (23:15 UTC)

Прогноз

Эта сводка был подготовлена 5 часа и 45 минут назад, в 17:30 UTC
Прогноз действительный с 15-го 18 UTC до 15-го 20 UTC
Ветер 8 Узел от южный
Видимость: 8000 м
Рассеянная облачность на высоте 400 фута
небольшой дождь, Морось
временами
С 15-го 18 UTC до 15-го 20 UTC
Видимость: 2000 м
Рассеянная облачность на высоте 1000 фута
снег, дождь

TAF: ESGJ 151730Z 1518/1520 18008KT 8000 -RADZ BKN004 TEMPO 1518/1520 2000 SNRA BKN010

Метеонаблюдения и прогнозы для более 4000 аэропортов (сводки METAR и TAF).

Имеющиеся станции представлены на карте желтыми и красными точками.

Чтобы увидеть название станции, наведите на нее мышь.

Затем щелкните, чтобы увидеть метеонаблюдения и метеопрогнозы.

Управление картой: чтобы увеличить масштаб, щелкните зеленые кнопки с черным крестиком; чтобы уменьшить масштаб, щелкните зеленую кнопку с тире; для просмотра соседних карт щелкайте зеленые стрелки.


METAR-TAF: